createdAt,value
2024-01-28T00:02:24.598Z,8.70
2024-01-28T00:04:56.970Z,6.90
2024-01-28T00:07:29.295Z,19.40
2024-01-28T00:10:01.813Z,12.60
2024-01-28T00:12:34.426Z,8.30
2024-01-28T00:15:08.475Z,7.60
2024-01-28T00:17:40.931Z,5.70
2024-01-28T00:20:15.824Z,7.20
2024-01-28T00:22:48.177Z,6.40
2024-01-28T00:25:20.568Z,9.40
2024-01-28T00:27:52.974Z,9.90
2024-01-28T00:30:31.455Z,7.80
2024-01-28T00:33:04.023Z,7.90
2024-01-28T00:35:36.473Z,6.30
2024-01-28T00:38:10.700Z,5.70
2024-01-28T00:40:43.118Z,23.20
2024-01-28T00:43:15.464Z,10.70
2024-01-28T00:45:48.076Z,13.70
2024-01-28T00:48:20.612Z,9.40
2024-01-28T00:50:53.201Z,11.90
2024-01-28T00:53:25.578Z,10.70
2024-01-28T00:55:58.047Z,6.00
2024-01-28T00:58:30.965Z,6.10
2024-01-28T01:01:03.490Z,4.70
2024-01-28T01:03:35.996Z,10.20
2024-01-28T01:06:09.308Z,4.90
2024-01-28T01:08:41.663Z,6.70
2024-01-28T01:11:14.377Z,6.40
2024-01-28T01:13:46.733Z,7.80
2024-01-28T01:16:19.392Z,6.30
2024-01-28T01:18:52.035Z,4.70
2024-01-28T01:21:24.598Z,6.20
2024-01-28T01:23:57.549Z,9.90
2024-01-28T01:26:29.939Z,7.40
2024-01-28T01:29:02.305Z,5.20
2024-01-28T01:31:34.691Z,9.20
2024-01-28T01:34:07.496Z,6.60
2024-01-28T01:36:40.061Z,4.50
2024-01-28T01:39:13.594Z,6.50
2024-01-28T01:41:46.142Z,7.70
2024-01-28T01:44:18.911Z,5.80
2024-01-28T01:46:51.302Z,9.20
2024-01-28T01:49:23.921Z,5.70
2024-01-28T01:51:57.132Z,7.80
2024-01-28T01:54:29.956Z,10.00
2024-01-28T01:57:03.601Z,7.50
2024-01-28T01:59:36.905Z,6.60
2024-01-28T02:02:12.105Z,6.30
2024-01-28T02:04:45.178Z,4.10
2024-01-28T02:07:17.699Z,5.30
2024-01-28T02:09:50.147Z,6.10
2024-01-28T02:12:22.942Z,6.40
2024-01-28T02:15:06.875Z,7.70
2024-01-28T02:17:39.613Z,6.60
2024-01-28T02:20:14.643Z,10.20
2024-01-28T02:22:47.118Z,8.50
2024-01-28T02:25:19.487Z,4.90
2024-01-28T02:27:52.146Z,3.80
2024-01-28T02:30:24.507Z,9.40
2024-01-28T02:32:57.194Z,4.90
2024-01-28T02:35:29.635Z,4.10
2024-01-28T02:38:02.201Z,3.50
2024-01-28T02:40:35.153Z,6.80
2024-01-28T02:43:08.814Z,8.30
2024-01-28T02:45:41.198Z,6.00
2024-01-28T02:48:13.715Z,6.10
2024-01-28T02:50:46.254Z,6.40
2024-01-28T02:53:19.053Z,10.20
2024-01-28T02:55:51.419Z,5.80
2024-01-28T02:58:23.805Z,4.30
2024-01-28T03:00:56.398Z,4.00
2024-01-28T03:03:29.495Z,3.70
2024-01-28T03:06:02.191Z,4.40
2024-01-28T03:08:35.267Z,6.20
2024-01-28T03:11:07.790Z,6.30
2024-01-28T03:13:40.863Z,4.60
2024-01-28T03:16:13.138Z,5.40
2024-01-28T03:18:45.626Z,7.50
2024-01-28T03:21:18.139Z,4.10
2024-01-28T03:23:50.557Z,5.30
2024-01-28T03:26:22.945Z,7.00
2024-01-28T03:28:55.343Z,6.30
2024-01-28T03:31:27.895Z,10.50
2024-01-28T03:34:00.683Z,6.40
2024-01-28T03:36:33.153Z,4.30
2024-01-28T03:39:06.617Z,9.00
2024-01-28T03:41:39.723Z,4.90
2024-01-28T03:44:12.949Z,14.90
2024-01-28T03:46:45.278Z,6.60
2024-01-28T03:49:17.719Z,4.20
2024-01-28T03:51:50.585Z,6.30
2024-01-28T03:54:23.098Z,8.20
2024-01-28T03:56:55.456Z,8.30
2024-01-28T03:59:28.989Z,9.20
2024-01-28T04:02:02.821Z,9.50
2024-01-28T04:04:35.355Z,5.10
2024-01-28T04:07:07.908Z,3.90
2024-01-28T04:09:42.312Z,6.40
2024-01-28T04:12:14.819Z,3.90
2024-01-28T04:14:47.162Z,6.80
2024-01-28T04:17:19.728Z,4.40
2024-01-28T04:19:53.456Z,8.80
2024-01-28T04:22:26.043Z,6.40
2024-01-28T04:24:58.445Z,5.50
2024-01-28T04:27:30.863Z,8.90
2024-01-28T04:30:04.021Z,5.70
2024-01-28T04:32:36.442Z,6.20
2024-01-28T04:35:12.527Z,8.00
2024-01-28T04:37:44.976Z,11.70
2024-01-28T04:40:17.813Z,9.50
2024-01-28T04:42:50.148Z,11.10
2024-01-28T04:45:22.546Z,9.40
2024-01-28T04:47:55.007Z,6.30
2024-01-28T04:50:27.600Z,9.90
2024-01-28T04:52:59.901Z,5.30
2024-01-28T04:55:32.452Z,6.90
2024-01-28T04:58:04.933Z,5.60
2024-01-28T05:00:37.351Z,7.80
2024-01-28T05:03:10.101Z,7.20
2024-01-28T05:05:42.739Z,6.00
2024-01-28T05:08:15.701Z,4.20
2024-01-28T05:10:48.096Z,6.10
2024-01-28T05:13:20.557Z,28.70
2024-01-28T05:15:53.011Z,18.90
2024-01-28T05:18:25.837Z,11.40
2024-01-28T05:20:58.676Z,8.10
2024-01-28T05:23:31.034Z,10.70
2024-01-28T05:26:03.642Z,30.30
2024-01-28T05:28:36.253Z,14.20
2024-01-28T05:31:09.432Z,14.80
2024-01-28T05:33:42.558Z,10.20
2024-01-28T05:36:18.455Z,9.90
2024-01-28T05:38:50.751Z,14.10
2024-01-28T05:41:23.207Z,16.00
2024-01-28T05:43:55.550Z,24.40
2024-01-28T05:46:27.897Z,13.10
2024-01-28T05:49:00.270Z,10.50
2024-01-28T05:51:35.642Z,10.50
2024-01-28T05:54:08.432Z,17.00
2024-01-28T05:56:40.966Z,13.50
2024-01-28T05:59:13.300Z,9.00
2024-01-28T06:01:45.812Z,10.30
2024-01-28T06:04:18.217Z,7.80
2024-01-28T06:06:50.784Z,14.10
2024-01-28T06:09:23.313Z,9.30
2024-01-28T06:11:55.675Z,6.60
2024-01-28T06:14:28.981Z,5.30
2024-01-28T06:17:01.361Z,5.90
2024-01-28T06:19:33.762Z,7.80
2024-01-28T06:22:06.480Z,12.40
2024-01-28T06:24:43.444Z,7.70
2024-01-28T06:27:16.426Z,7.10
2024-01-28T06:29:48.898Z,5.20
2024-01-28T06:32:23.150Z,6.00
2024-01-28T06:34:55.660Z,5.60
2024-01-28T06:37:28.530Z,6.00
2024-01-28T06:40:01.515Z,5.60
2024-01-28T06:42:34.105Z,6.20
2024-01-28T06:45:09.221Z,6.10
2024-01-28T06:47:43.100Z,5.80
2024-01-28T06:50:15.806Z,5.50
2024-01-28T06:52:49.277Z,4.40
2024-01-28T06:55:21.673Z,14.30
2024-01-28T06:57:53.981Z,26.00
2024-01-28T07:00:26.687Z,19.40
2024-01-28T07:02:59.945Z,14.60
2024-01-28T07:05:34.091Z,14.40
2024-01-28T07:08:08.869Z,9.30
2024-01-28T07:10:41.254Z,18.00
2024-01-28T07:13:13.692Z,18.30
2024-01-28T07:15:46.190Z,8.60
2024-01-28T07:18:19.442Z,13.60
2024-01-28T07:20:51.764Z,9.90
2024-01-28T07:23:24.307Z,15.10
2024-01-28T07:25:56.659Z,14.00
2024-01-28T07:28:29.186Z,11.70
2024-01-28T07:31:01.738Z,21.70
2024-01-28T07:33:34.339Z,11.70
2024-01-28T07:36:07.166Z,10.70
2024-01-28T07:38:39.507Z,9.50
2024-01-28T07:41:15.848Z,12.60
2024-01-28T07:43:48.418Z,14.90
2024-01-28T07:46:22.984Z,15.30
2024-01-28T07:48:55.397Z,25.10
2024-01-28T07:51:28.210Z,20.00
2024-01-28T07:54:00.586Z,136.10
2024-01-28T07:56:33.074Z,121.70
2024-01-28T07:59:05.438Z,79.50
2024-01-28T08:01:38.147Z,78.70
2024-01-28T08:04:10.783Z,103.80
2024-01-28T08:06:43.227Z,45.00
2024-01-28T08:09:15.719Z,82.20
2024-01-28T08:11:48.191Z,75.80
2024-01-28T08:14:20.550Z,56.70
2024-01-28T08:16:52.932Z,45.90
2024-01-28T08:19:25.711Z,52.50
2024-01-28T08:21:58.200Z,33.20
2024-01-28T08:24:30.641Z,19.80
2024-01-28T08:27:03.081Z,29.30
2024-01-28T08:29:35.601Z,24.30
2024-01-28T08:32:08.930Z,25.30
2024-01-28T08:34:41.326Z,46.40
2024-01-28T08:37:13.673Z,23.10
2024-01-28T08:39:46.409Z,29.70
2024-01-28T08:42:20.460Z,16.80
2024-01-28T08:44:53.050Z,21.30
2024-01-28T08:47:25.495Z,25.20
2024-01-28T08:49:58.678Z,14.50
2024-01-28T08:52:31.113Z,11.00
2024-01-28T08:55:03.969Z,13.80
2024-01-28T08:57:36.558Z,23.50
2024-01-28T09:00:13.640Z,11.30
2024-01-28T09:02:46.076Z,15.00
2024-01-28T09:05:19.017Z,8.00
2024-01-28T09:07:53.058Z,17.60
2024-01-28T09:10:25.487Z,9.10
2024-01-28T09:12:57.918Z,10.40
2024-01-28T09:15:30.419Z,13.10
2024-01-28T09:18:03.538Z,14.80
2024-01-28T09:20:35.944Z,13.50
2024-01-28T09:23:08.392Z,14.40
2024-01-28T09:25:40.847Z,23.50
2024-01-28T09:28:13.270Z,22.10
2024-01-28T09:30:46.175Z,15.40
2024-01-28T09:33:18.717Z,17.60
2024-01-28T09:35:53.707Z,11.80
2024-01-28T09:40:56.793Z,40.10
2024-01-28T09:43:32.085Z,38.20
2024-01-28T09:46:06.975Z,205.40
2024-01-28T09:48:40.114Z,26.70
2024-01-28T09:51:13.534Z,28.40
2024-01-28T09:53:46.254Z,19.60
2024-01-28T09:56:18.835Z,28.90
2024-01-28T09:58:51.800Z,23.10
2024-01-28T10:01:25.773Z,20.80
2024-01-28T10:04:01.508Z,20.50
2024-01-28T10:06:34.435Z,18.20
2024-01-28T10:09:07.131Z,16.10
2024-01-28T10:11:39.671Z,13.90
2024-01-28T10:14:12.375Z,14.70
2024-01-28T10:16:47.503Z,15.50
2024-01-28T10:19:20.032Z,17.10
2024-01-28T10:21:53.227Z,227.50
2024-01-28T10:24:26.489Z,343.70
2024-01-28T10:27:01.806Z,195.00
2024-01-28T10:29:34.722Z,68.80
2024-01-28T10:32:08.249Z,133.20
2024-01-28T10:34:41.200Z,26.40
2024-01-28T10:37:16.809Z,26.20
2024-01-28T10:39:53.392Z,14.20
2024-01-28T10:42:29.479Z,16.40
2024-01-28T10:45:02.710Z,11.10
2024-01-28T10:47:37.562Z,10.60
2024-01-28T10:52:43.545Z,16.90
2024-01-28T10:55:17.444Z,13.90
2024-01-28T10:57:50.745Z,10.90
2024-01-28T11:00:23.378Z,14.30
2024-01-28T11:02:58.052Z,11.00
2024-01-28T11:08:02.758Z,8.60
2024-01-28T11:10:35.547Z,21.50
2024-01-28T11:13:09.915Z,13.60
2024-01-28T11:15:45.361Z,12.00
2024-01-28T11:18:19.198Z,10.00
2024-01-28T11:20:51.683Z,10.80
2024-01-28T11:23:24.409Z,10.90
2024-01-28T11:26:00.012Z,11.30
2024-01-28T11:28:50.293Z,15.50
2024-01-28T11:31:33.117Z,12.10
2024-01-28T11:34:22.699Z,9.90
2024-01-28T11:36:56.421Z,8.80
2024-01-28T11:39:41.560Z,10.60
2024-01-28T11:42:14.290Z,24.50
2024-01-28T11:44:49.527Z,12.00
2024-01-28T11:47:23.813Z,14.20
2024-01-28T11:49:57.627Z,12.10
2024-01-28T11:52:30.568Z,18.30
2024-01-28T11:55:13.005Z,18.20
2024-01-28T11:57:48.602Z,11.40
2024-01-28T12:00:22.411Z,13.30
2024-01-28T12:02:55.327Z,12.70
2024-01-28T12:05:27.728Z,10.30
2024-01-28T12:08:05.005Z,12.80
2024-01-28T12:10:39.659Z,8.40
2024-01-28T12:13:13.590Z,11.90
2024-01-28T12:15:46.107Z,10.30
2024-01-28T12:18:18.766Z,25.10
2024-01-28T12:20:54.615Z,11.20
2024-01-28T12:23:27.084Z,10.60
2024-01-28T12:26:00.253Z,12.20
2024-01-28T12:28:32.817Z,12.90
2024-01-28T12:31:06.661Z,13.40
2024-01-28T12:33:40.474Z,25.50
2024-01-28T12:36:13.196Z,22.00
2024-01-28T12:38:45.600Z,20.10
2024-01-28T12:41:17.910Z,19.90
2024-01-28T12:43:53.386Z,29.80
2024-01-28T12:46:38.517Z,36.10
2024-01-28T12:49:12.980Z,30.10
2024-01-28T12:51:46.017Z,19.00
2024-01-28T12:54:19.012Z,15.50
2024-01-28T12:56:52.127Z,16.30
2024-01-28T12:59:24.790Z,14.50
2024-01-28T13:01:57.354Z,32.10
2024-01-28T13:04:30.720Z,21.10
2024-01-28T13:07:03.354Z,14.50
2024-01-28T13:09:35.764Z,21.40
2024-01-28T13:12:11.049Z,18.10
2024-01-28T13:14:43.451Z,18.60
2024-01-28T13:17:15.909Z,11.30
2024-01-28T13:19:51.547Z,13.60
2024-01-28T13:22:24.762Z,18.60
2024-01-28T13:24:57.530Z,18.30
2024-01-28T13:27:31.076Z,17.70
2024-01-28T13:30:04.250Z,17.60
2024-01-28T13:32:39.285Z,20.50
2024-01-28T13:35:12.614Z,18.40
2024-01-28T13:37:45.735Z,20.70
2024-01-28T13:40:18.215Z,22.10
2024-01-28T13:42:50.584Z,19.70
2024-01-28T13:45:22.943Z,20.80
2024-01-28T13:47:55.408Z,22.70
2024-01-28T13:50:28.029Z,30.10
2024-01-28T13:53:00.916Z,55.70
2024-01-28T13:55:33.592Z,59.60
2024-01-28T13:58:06.278Z,73.00
2024-01-28T14:00:38.748Z,69.50
2024-01-28T14:03:13.193Z,56.00
2024-01-28T14:05:45.767Z,40.60
2024-01-28T14:08:18.291Z,42.70
2024-01-28T14:10:50.648Z,53.00
2024-01-28T14:13:23.096Z,84.00
2024-01-28T14:15:55.742Z,37.30
2024-01-28T14:18:28.176Z,20.90
2024-01-28T14:21:00.544Z,19.10
2024-01-28T14:23:34.655Z,19.40
2024-01-28T14:26:09.061Z,14.20
2024-01-28T14:28:41.599Z,14.60
2024-01-28T14:31:14.558Z,21.70
2024-01-28T14:33:47.001Z,28.80
2024-01-28T14:36:19.506Z,22.20
2024-01-28T14:38:52.460Z,26.30
2024-01-28T14:41:24.834Z,128.20
2024-01-28T14:43:57.284Z,118.20
2024-01-28T14:46:29.795Z,276.00
2024-01-28T14:49:03.156Z,90.90
2024-01-28T14:51:40.420Z,74.10
2024-01-28T14:54:13.778Z,58.80
2024-01-28T14:56:46.242Z,60.10
2024-01-28T14:59:18.670Z,56.20
2024-01-28T15:01:51.057Z,42.30
2024-01-28T15:04:23.614Z,29.00
2024-01-28T15:06:56.774Z,51.30
2024-01-28T15:09:29.402Z,47.90
2024-01-28T15:12:01.912Z,29.20
2024-01-28T15:14:35.020Z,20.90
2024-01-28T15:17:08.546Z,15.60
2024-01-28T15:19:41.017Z,14.20
2024-01-28T15:22:13.919Z,11.80
2024-01-28T15:24:46.648Z,21.20
2024-01-28T15:27:19.140Z,26.70
2024-01-28T15:29:51.811Z,16.70
2024-01-28T15:32:24.290Z,14.80
2024-01-28T15:34:57.680Z,20.10
2024-01-28T15:37:33.500Z,26.60
2024-01-28T15:40:07.138Z,29.40
2024-01-28T15:42:39.543Z,42.00
2024-01-28T15:45:14.375Z,34.30
2024-01-28T15:47:48.604Z,33.40
2024-01-28T15:50:21.184Z,34.10
2024-01-28T15:52:53.571Z,45.30
2024-01-28T15:55:31.538Z,47.90
2024-01-28T15:58:04.909Z,54.50
2024-01-28T16:00:37.487Z,48.30
2024-01-28T16:03:10.237Z,54.70
2024-01-28T16:05:42.828Z,53.20
2024-01-28T16:08:15.447Z,49.60
2024-01-28T16:10:48.029Z,65.80
2024-01-28T16:13:20.806Z,69.80
2024-01-28T16:15:53.272Z,58.30
2024-01-28T16:18:25.845Z,41.40
2024-01-28T16:20:58.858Z,41.40
2024-01-28T16:23:31.239Z,41.80
2024-01-28T16:26:05.704Z,46.50
2024-01-28T16:28:38.123Z,35.50
2024-01-28T16:31:10.623Z,48.70
2024-01-28T16:33:43.092Z,28.70
2024-01-28T16:36:17.662Z,43.50
2024-01-28T16:38:50.484Z,31.40
2024-01-28T16:43:55.303Z,36.40
2024-01-28T16:46:27.769Z,54.90
2024-01-28T16:49:00.314Z,88.70
2024-01-28T16:51:32.874Z,53.20
2024-01-28T16:54:05.504Z,43.10
2024-01-28T16:56:38.111Z,71.90
2024-01-28T16:59:10.843Z,66.80
2024-01-28T17:01:44.630Z,39.20
2024-01-28T17:04:17.519Z,34.90
2024-01-28T17:06:50.120Z,65.90
2024-01-28T17:09:22.511Z,303.00
2024-01-28T17:11:55.081Z,141.40
2024-01-28T17:14:27.460Z,95.70
2024-01-28T17:16:59.968Z,57.50
2024-01-28T17:19:33.130Z,62.50
2024-01-28T17:22:06.014Z,46.00
2024-01-28T17:24:38.478Z,66.90
2024-01-28T17:27:10.881Z,53.80
2024-01-28T17:29:43.610Z,33.20
2024-01-28T17:32:16.121Z,27.10
2024-01-28T17:34:50.746Z,35.60
2024-01-28T17:39:55.546Z,37.40
2024-01-28T17:42:30.065Z,39.60
2024-01-28T17:45:02.959Z,41.20
2024-01-28T17:47:37.579Z,46.80
2024-01-28T17:50:12.761Z,46.70
2024-01-28T17:52:45.361Z,33.50
2024-01-28T17:55:18.512Z,41.50
2024-01-28T17:57:51.017Z,36.20
2024-01-28T18:00:25.880Z,30.80
2024-01-28T18:02:58.320Z,32.10
2024-01-28T18:05:31.366Z,35.10
2024-01-28T18:08:04.532Z,34.90
2024-01-28T18:10:37.031Z,31.80
2024-01-28T18:13:09.623Z,35.40
2024-01-28T18:15:42.116Z,31.10
2024-01-28T18:18:15.472Z,37.80
2024-01-28T18:20:47.991Z,46.40
2024-01-28T18:23:22.034Z,37.10
2024-01-28T18:25:54.622Z,17.60
2024-01-28T18:28:27.061Z,36.00
2024-01-28T18:30:59.477Z,41.80
2024-01-28T18:33:35.652Z,27.60
2024-01-28T18:36:10.358Z,19.90
2024-01-28T18:38:43.027Z,32.00
2024-01-28T18:41:15.764Z,37.10
2024-01-28T18:43:49.750Z,33.20
2024-01-28T18:46:22.119Z,42.50
2024-01-28T18:48:54.615Z,108.10
2024-01-28T18:51:27.042Z,72.60
2024-01-28T18:53:59.451Z,66.30
2024-01-28T18:56:31.819Z,42.30
2024-01-28T18:59:06.355Z,62.20
2024-01-28T19:01:39.008Z,115.40
2024-01-28T19:04:11.404Z,48.50
2024-01-28T19:06:43.870Z,47.10
2024-01-28T19:09:16.490Z,24.30
2024-01-28T19:11:49.334Z,24.60
2024-01-28T19:14:21.834Z,21.00
2024-01-28T19:16:54.365Z,17.30
2024-01-28T19:19:28.540Z,22.20
2024-01-28T19:22:01.281Z,36.10
2024-01-28T19:24:34.735Z,28.30
2024-01-28T19:27:09.072Z,34.80
2024-01-28T19:29:42.050Z,41.50
2024-01-28T19:32:14.491Z,45.80
2024-01-28T19:34:46.991Z,31.80
2024-01-28T19:37:19.965Z,34.40
2024-01-28T19:39:52.292Z,36.50
2024-01-28T19:42:26.110Z,28.90
2024-01-28T19:44:58.788Z,25.50
2024-01-28T19:47:31.316Z,24.30
2024-01-28T19:50:04.244Z,25.50
2024-01-28T19:52:36.849Z,26.10
2024-01-28T19:55:10.355Z,28.70
2024-01-28T19:57:42.867Z,53.10
2024-01-28T20:00:17.200Z,25.10
2024-01-28T20:02:51.431Z,25.60
2024-01-28T20:05:24.034Z,26.00
2024-01-28T20:07:56.513Z,22.30
2024-01-28T20:10:28.905Z,24.20
2024-01-28T20:13:01.507Z,25.00
2024-01-28T20:15:34.261Z,25.40
2024-01-28T20:18:07.452Z,23.00
2024-01-28T20:20:40.167Z,20.10
2024-01-28T20:23:15.043Z,20.10
2024-01-28T20:25:53.993Z,23.40
2024-01-28T20:28:28.270Z,27.20
2024-01-28T20:31:00.815Z,32.20
2024-01-28T20:33:33.346Z,36.40
2024-01-28T20:36:06.387Z,22.10
2024-01-28T20:38:39.249Z,19.10
2024-01-28T20:41:11.756Z,17.80
2024-01-28T20:43:44.648Z,32.80
2024-01-28T20:46:17.128Z,18.20
2024-01-28T20:48:53.169Z,21.70
2024-01-28T20:51:25.813Z,17.90
2024-01-28T20:53:58.257Z,19.40
2024-01-28T20:56:30.651Z,20.80
2024-01-28T20:59:03.094Z,29.90
2024-01-28T21:01:35.766Z,32.80
2024-01-28T21:04:08.381Z,24.60
2024-01-28T21:06:41.075Z,26.60
2024-01-28T21:09:13.421Z,29.30
2024-01-28T21:11:45.821Z,21.50
2024-01-28T21:14:18.383Z,22.10
2024-01-28T21:16:51.642Z,30.80
2024-01-28T21:19:29.190Z,22.80
2024-01-28T21:22:29.365Z,18.40
2024-01-28T21:25:01.938Z,21.10
2024-01-28T21:27:36.290Z,30.90
2024-01-28T21:30:11.298Z,25.30
2024-01-28T21:32:43.945Z,24.10
2024-01-28T21:35:16.601Z,20.00
2024-01-28T21:37:49.143Z,19.90
2024-01-28T21:40:21.467Z,24.20
2024-01-28T21:42:53.913Z,28.10
2024-01-28T21:45:26.387Z,21.80
2024-01-28T21:47:58.874Z,23.40
2024-01-28T21:50:31.241Z,22.40
2024-01-28T21:53:03.590Z,20.00
2024-01-28T21:55:36.077Z,27.90
2024-01-28T21:58:08.623Z,26.60
2024-01-28T22:00:41.112Z,31.10
2024-01-28T22:03:13.591Z,20.50
2024-01-28T22:05:46.561Z,23.60
2024-01-28T22:08:19.406Z,26.00
2024-01-28T22:10:51.851Z,28.90
2024-01-28T22:13:24.429Z,25.80
2024-01-28T22:15:56.854Z,23.30
2024-01-28T22:18:30.082Z,24.10
2024-01-28T22:21:03.303Z,23.70
2024-01-28T22:23:35.689Z,19.70
2024-01-28T22:26:08.204Z,27.90
2024-01-28T22:28:42.553Z,20.20
2024-01-28T22:31:15.242Z,23.70
2024-01-28T22:33:48.303Z,23.90
2024-01-28T22:36:20.639Z,20.40
2024-01-28T22:38:53.168Z,18.50
2024-01-28T22:41:25.575Z,20.50
2024-01-28T22:43:59.249Z,23.50
2024-01-28T22:46:31.690Z,18.40
2024-01-28T22:49:04.234Z,17.70
2024-01-28T22:51:38.102Z,17.30
2024-01-28T22:54:11.461Z,17.40
2024-01-28T22:56:44.215Z,15.00
2024-01-28T22:59:16.531Z,16.10
2024-01-28T23:01:50.429Z,15.70
2024-01-28T23:04:23.060Z,16.00
2024-01-28T23:06:55.493Z,15.50
2024-01-28T23:09:28.214Z,15.90
2024-01-28T23:12:01.689Z,15.60
2024-01-28T23:14:34.125Z,14.70
2024-01-28T23:17:06.893Z,16.70
2024-01-28T23:19:39.344Z,14.10
2024-01-28T23:22:12.151Z,15.10
2024-01-28T23:24:44.647Z,16.50
2024-01-28T23:27:17.037Z,16.30
2024-01-28T23:29:49.654Z,18.10
2024-01-28T23:32:22.012Z,18.80
2024-01-28T23:34:54.542Z,17.80
2024-01-28T23:37:27.159Z,18.20
2024-01-28T23:39:59.928Z,17.60
2024-01-28T23:42:32.375Z,15.90
2024-01-28T23:45:05.298Z,16.70
2024-01-28T23:47:37.679Z,16.50
2024-01-28T23:50:11.923Z,15.00
2024-01-28T23:52:44.500Z,13.60
2024-01-28T23:55:16.879Z,14.80
2024-01-28T23:57:49.326Z,14.10
